sensor_id;sensor_type;location;lat;lon;timestamp;P1;durP1;ratioP1;P2;durP2;ratioP2
68888;SDS011;55930;47.412;8.790;2023-02-23T00:04:42;19.77;;;13.23;;
68888;SDS011;55930;47.412;8.790;2023-02-23T00:08:02;19.40;;;13.67;;
68888;SDS011;55930;47.412;8.790;2023-02-23T00:11:24;19.67;;;14.40;;
68888;SDS011;55930;47.412;8.790;2023-02-23T00:14:46;19.85;;;13.65;;
68888;SDS011;55930;47.412;8.790;2023-02-23T00:18:06;19.57;;;14.23;;
68888;SDS011;55930;47.412;8.790;2023-02-23T00:21:28;21.48;;;13.98;;
68888;SDS011;55930;47.412;8.790;2023-02-23T00:24:57;23.02;;;15.77;;
68888;SDS011;55930;47.412;8.790;2023-02-23T00:28:18;20.45;;;14.38;;
68888;SDS011;55930;47.412;8.790;2023-02-23T00:31:39;20.43;;;14.57;;
68888;SDS011;55930;47.412;8.790;2023-02-23T00:35:03;20.77;;;14.15;;
68888;SDS011;55930;47.412;8.790;2023-02-23T00:38:24;21.60;;;13.57;;
68888;SDS011;55930;47.412;8.790;2023-02-23T00:41:44;18.07;;;13.80;;
68888;SDS011;55930;47.412;8.790;2023-02-23T00:45:06;22.80;;;14.73;;
68888;SDS011;55930;47.412;8.790;2023-02-23T00:48:31;20.90;;;14.27;;
68888;SDS011;55930;47.412;8.790;2023-02-23T00:51:56;19.63;;;13.02;;
68888;SDS011;55930;47.412;8.790;2023-02-23T00:55:16;20.20;;;13.60;;
68888;SDS011;55930;47.412;8.790;2023-02-23T00:58:37;17.17;;;12.73;;
68888;SDS011;55930;47.412;8.790;2023-02-23T01:02:00;19.27;;;13.52;;
68888;SDS011;55930;47.412;8.790;2023-02-23T01:05:21;21.93;;;14.50;;
68888;SDS011;55930;47.412;8.790;2023-02-23T01:08:46;18.60;;;14.53;;
68888;SDS011;55930;47.412;8.790;2023-02-23T01:12:08;16.48;;;13.30;;
68888;SDS011;55930;47.412;8.790;2023-02-23T01:15:28;19.50;;;13.20;;
68888;SDS011;55930;47.412;8.790;2023-02-23T01:18:48;17.20;;;12.77;;
68888;SDS011;55930;47.412;8.790;2023-02-23T01:22:09;22.57;;;13.07;;
68888;SDS011;55930;47.412;8.790;2023-02-23T01:25:29;17.03;;;12.70;;
68888;SDS011;55930;47.412;8.790;2023-02-23T01:28:51;18.47;;;13.10;;
68888;SDS011;55930;47.412;8.790;2023-02-23T01:32:12;17.63;;;12.98;;
68888;SDS011;55930;47.412;8.790;2023-02-23T01:35:33;16.80;;;12.53;;
68888;SDS011;55930;47.412;8.790;2023-02-23T01:38:54;16.23;;;12.98;;
68888;SDS011;55930;47.412;8.790;2023-02-23T01:42:16;19.50;;;13.98;;
68888;SDS011;55930;47.412;8.790;2023-02-23T01:45:36;18.00;;;11.97;;
68888;SDS011;55930;47.412;8.790;2023-02-23T01:48:59;17.00;;;12.73;;
68888;SDS011;55930;47.412;8.790;2023-02-23T01:52:21;20.58;;;12.60;;
68888;SDS011;55930;47.412;8.790;2023-02-23T01:55:47;17.77;;;12.50;;
68888;SDS011;55930;47.412;8.790;2023-02-23T01:59:11;19.42;;;13.93;;
68888;SDS011;55930;47.412;8.790;2023-02-23T02:02:34;16.75;;;12.68;;
68888;SDS011;55930;47.412;8.790;2023-02-23T02:05:54;20.50;;;12.97;;
68888;SDS011;55930;47.412;8.790;2023-02-23T02:09:16;17.80;;;12.95;;
68888;SDS011;55930;47.412;8.790;2023-02-23T02:34:56;17.27;;;13.82;;
68888;SDS011;55930;47.412;8.790;2023-02-23T02:42:23;18.17;;;13.07;;
68888;SDS011;55930;47.412;8.790;2023-02-23T02:45:54;16.52;;;13.52;;
68888;SDS011;55930;47.412;8.790;2023-02-23T02:49:34;19.13;;;12.38;;
68888;SDS011;55930;47.412;8.790;2023-02-23T02:53:09;17.77;;;12.38;;
68888;SDS011;55930;47.412;8.790;2023-02-23T02:56:31;15.57;;;12.60;;
68888;SDS011;55930;47.412;8.790;2023-02-23T02:59:59;19.42;;;12.77;;
68888;SDS011;55930;47.412;8.790;2023-02-23T03:03:41;17.20;;;12.77;;
68888;SDS011;55930;47.412;8.790;2023-02-23T03:07:25;21.10;;;13.40;;
68888;SDS011;55930;47.412;8.790;2023-02-23T03:11:13;19.75;;;13.85;;
68888;SDS011;55930;47.412;8.790;2023-02-23T03:15:15;16.95;;;12.55;;
68888;SDS011;55930;47.412;8.790;2023-02-23T03:22:59;17.38;;;13.25;;
68888;SDS011;55930;47.412;8.790;2023-02-23T03:34:46;17.00;;;12.10;;
68888;SDS011;55930;47.412;8.790;2023-02-23T03:38:44;15.30;;;11.88;;
68888;SDS011;55930;47.412;8.790;2023-02-23T03:42:32;18.42;;;12.82;;
68888;SDS011;55930;47.412;8.790;2023-02-23T03:46:14;15.75;;;12.38;;
68888;SDS011;55930;47.412;8.790;2023-02-23T03:49:55;21.00;;;13.75;;
68888;SDS011;55930;47.412;8.790;2023-02-23T03:53:46;16.98;;;12.40;;
68888;SDS011;55930;47.412;8.790;2023-02-23T03:57:33;21.52;;;14.18;;
68888;SDS011;55930;47.412;8.790;2023-02-23T04:01:17;20.30;;;14.18;;
68888;SDS011;55930;47.412;8.790;2023-02-23T04:04:58;17.55;;;13.52;;
68888;SDS011;55930;47.412;8.790;2023-02-23T04:08:42;20.17;;;13.77;;
68888;SDS011;55930;47.412;8.790;2023-02-23T04:16:08;18.42;;;12.27;;
68888;SDS011;55930;47.412;8.790;2023-02-23T04:19:30;17.30;;;12.60;;
68888;SDS011;55930;47.412;8.790;2023-02-23T04:22:50;18.40;;;13.43;;
68888;SDS011;55930;47.412;8.790;2023-02-23T04:26:11;17.20;;;13.27;;
68888;SDS011;55930;47.412;8.790;2023-02-23T04:29:34;21.30;;;12.93;;
68888;SDS011;55930;47.412;8.790;2023-02-23T04:32:54;20.83;;;13.27;;
68888;SDS011;55930;47.412;8.790;2023-02-23T04:36:15;18.77;;;13.88;;
68888;SDS011;55930;47.412;8.790;2023-02-23T04:39:36;18.27;;;13.50;;
68888;SDS011;55930;47.412;8.790;2023-02-23T04:42:59;17.02;;;13.45;;
68888;SDS011;55930;47.412;8.790;2023-02-23T04:46:21;18.37;;;12.90;;
68888;SDS011;55930;47.412;8.790;2023-02-23T04:49:42;16.50;;;12.70;;
68888;SDS011;55930;47.412;8.790;2023-02-23T04:53:03;18.70;;;13.23;;
68888;SDS011;55930;47.412;8.790;2023-02-23T04:56:23;16.87;;;12.43;;
68888;SDS011;55930;47.412;8.790;2023-02-23T04:59:44;23.65;;;13.77;;
68888;SDS011;55930;47.412;8.790;2023-02-23T05:03:05;18.50;;;13.27;;
68888;SDS011;55930;47.412;8.790;2023-02-23T05:06:26;16.40;;;12.88;;
68888;SDS011;55930;47.412;8.790;2023-02-23T05:09:46;23.03;;;13.93;;
68888;SDS011;55930;47.412;8.790;2023-02-23T05:13:07;20.30;;;14.03;;
68888;SDS011;55930;47.412;8.790;2023-02-23T05:16:30;15.82;;;12.93;;
68888;SDS011;55930;47.412;8.790;2023-02-23T05:19:52;18.50;;;13.65;;
68888;SDS011;55930;47.412;8.790;2023-02-23T05:23:13;17.87;;;13.07;;
68888;SDS011;55930;47.412;8.790;2023-02-23T05:26:33;15.17;;;13.00;;
68888;SDS011;55930;47.412;8.790;2023-02-23T05:29:53;16.90;;;13.00;;
68888;SDS011;55930;47.412;8.790;2023-02-23T05:33:14;19.63;;;13.50;;
68888;SDS011;55930;47.412;8.790;2023-02-23T05:36:34;18.83;;;13.40;;
68888;SDS011;55930;47.412;8.790;2023-02-23T05:39:56;19.77;;;14.02;;
68888;SDS011;55930;47.412;8.790;2023-02-23T05:43:17;20.80;;;13.60;;
68888;SDS011;55930;47.412;8.790;2023-02-23T05:50:00;23.33;;;14.02;;
68888;SDS011;55930;47.412;8.790;2023-02-23T05:53:21;17.93;;;13.47;;
68888;SDS011;55930;47.412;8.790;2023-02-23T05:56:41;18.40;;;13.07;;
68888;SDS011;55930;47.412;8.790;2023-02-23T06:00:02;17.53;;;14.77;;
68888;SDS011;55930;47.412;8.790;2023-02-23T06:03:25;20.60;;;14.63;;
68888;SDS011;55930;47.412;8.790;2023-02-23T06:10:07;16.40;;;11.90;;
68888;SDS011;55930;47.412;8.790;2023-02-23T06:13:28;18.35;;;14.00;;
68888;SDS011;55930;47.412;8.790;2023-02-23T06:16:50;20.52;;;13.75;;
68888;SDS011;55930;47.412;8.790;2023-02-23T06:20:10;22.23;;;14.00;;
68888;SDS011;55930;47.412;8.790;2023-02-23T06:23:31;22.23;;;13.15;;
68888;SDS011;55930;47.412;8.790;2023-02-23T06:26:52;17.27;;;12.85;;
68888;SDS011;55930;47.412;8.790;2023-02-23T06:30:13;17.67;;;12.60;;
68888;SDS011;55930;47.412;8.790;2023-02-23T06:33:33;21.20;;;15.90;;
68888;SDS011;55930;47.412;8.790;2023-02-23T06:36:54;24.70;;;18.60;;
68888;SDS011;55930;47.412;8.790;2023-02-23T06:40:14;22.00;;;16.83;;
68888;SDS011;55930;47.412;8.790;2023-02-23T06:43:35;19.50;;;14.80;;
68888;SDS011;55930;47.412;8.790;2023-02-23T06:46:55;22.77;;;15.20;;
68888;SDS011;55930;47.412;8.790;2023-02-23T06:50:16;30.83;;;19.43;;
68888;SDS011;55930;47.412;8.790;2023-02-23T06:53:39;26.75;;;20.08;;
68888;SDS011;55930;47.412;8.790;2023-02-23T06:56:59;26.23;;;19.87;;
68888;SDS011;55930;47.412;8.790;2023-02-23T07:00:23;29.77;;;19.90;;
68888;SDS011;55930;47.412;8.790;2023-02-23T07:03:43;28.40;;;18.43;;
68888;SDS011;55930;47.412;8.790;2023-02-23T07:07:04;22.77;;;16.27;;
68888;SDS011;55930;47.412;8.790;2023-02-23T07:10:24;22.07;;;16.20;;
68888;SDS011;55930;47.412;8.790;2023-02-23T07:13:44;22.77;;;16.57;;
68888;SDS011;55930;47.412;8.790;2023-02-23T07:17:05;23.30;;;16.80;;
68888;SDS011;55930;47.412;8.790;2023-02-23T07:20:26;22.83;;;16.52;;
68888;SDS011;55930;47.412;8.790;2023-02-23T07:23:47;22.03;;;16.53;;
68888;SDS011;55930;47.412;8.790;2023-02-23T07:27:08;24.13;;;15.90;;
68888;SDS011;55930;47.412;8.790;2023-02-23T07:30:29;20.63;;;15.53;;
68888;SDS011;55930;47.412;8.790;2023-02-23T07:33:52;22.55;;;15.77;;
68888;SDS011;55930;47.412;8.790;2023-02-23T07:37:14;21.75;;;16.00;;
68888;SDS011;55930;47.412;8.790;2023-02-23T07:40:36;35.15;;;25.95;;
68888;SDS011;55930;47.412;8.790;2023-02-23T07:43:57;33.10;;;25.80;;
68888;SDS011;55930;47.412;8.790;2023-02-23T07:47:18;36.40;;;27.75;;
68888;SDS011;55930;47.412;8.790;2023-02-23T07:50:41;33.83;;;26.37;;
68888;SDS011;55930;47.412;8.790;2023-02-23T07:54:02;33.75;;;25.00;;
68888;SDS011;55930;47.412;8.790;2023-02-23T07:57:23;30.33;;;23.13;;
68888;SDS011;55930;47.412;8.790;2023-02-23T08:00:46;35.13;;;23.87;;
68888;SDS011;55930;47.412;8.790;2023-02-23T08:04:07;26.85;;;21.80;;
68888;SDS011;55930;47.412;8.790;2023-02-23T08:07:27;34.27;;;19.47;;
68888;SDS011;55930;47.412;8.790;2023-02-23T08:10:57;26.52;;;20.05;;
68888;SDS011;55930;47.412;8.790;2023-02-23T08:14:22;24.30;;;18.08;;
68888;SDS011;55930;47.412;8.790;2023-02-23T08:17:43;23.00;;;18.87;;
68888;SDS011;55930;47.412;8.790;2023-02-23T08:21:03;23.30;;;18.30;;
68888;SDS011;55930;47.412;8.790;2023-02-23T08:24:24;26.53;;;21.07;;
68888;SDS011;55930;47.412;8.790;2023-02-23T08:27:45;19.50;;;16.02;;
68888;SDS011;55930;47.412;8.790;2023-02-23T08:31:10;22.55;;;15.43;;
68888;SDS011;55930;47.412;8.790;2023-02-23T08:34:35;19.70;;;14.82;;
68888;SDS011;55930;47.412;8.790;2023-02-23T08:37:57;15.68;;;13.40;;
68888;SDS011;55930;47.412;8.790;2023-02-23T08:41:17;19.07;;;13.97;;
68888;SDS011;55930;47.412;8.790;2023-02-23T08:44:37;30.97;;;23.63;;
68888;SDS011;55930;47.412;8.790;2023-02-23T08:47:58;18.17;;;15.83;;
68888;SDS011;55930;47.412;8.790;2023-02-23T08:51:18;26.07;;;18.37;;
68888;SDS011;55930;47.412;8.790;2023-02-23T08:54:39;19.63;;;15.30;;
68888;SDS011;55930;47.412;8.790;2023-02-23T08:57:59;17.53;;;14.00;;
68888;SDS011;55930;47.412;8.790;2023-02-23T09:01:20;21.63;;;13.27;;
68888;SDS011;55930;47.412;8.790;2023-02-23T09:04:43;18.85;;;13.00;;
68888;SDS011;55930;47.412;8.790;2023-02-23T09:08:03;18.37;;;11.10;;
68888;SDS011;55930;47.412;8.790;2023-02-23T09:11:24;14.70;;;11.60;;
68888;SDS011;55930;47.412;8.790;2023-02-23T09:14:44;15.70;;;12.53;;
68888;SDS011;55930;47.412;8.790;2023-02-23T09:18:05;16.43;;;11.53;;
68888;SDS011;55930;47.412;8.790;2023-02-23T09:21:27;17.55;;;11.75;;
68888;SDS011;55930;47.412;8.790;2023-02-23T09:24:48;13.32;;;10.18;;
68888;SDS011;55930;47.412;8.790;2023-02-23T09:28:13;14.80;;;11.10;;
68888;SDS011;55930;47.412;8.790;2023-02-23T09:31:35;15.43;;;11.10;;
68888;SDS011;55930;47.412;8.790;2023-02-23T09:34:55;14.97;;;10.07;;
68888;SDS011;55930;47.412;8.790;2023-02-23T09:38:15;14.20;;;10.83;;
68888;SDS011;55930;47.412;8.790;2023-02-23T09:48:53;14.65;;;10.40;;
68888;SDS011;55930;47.412;8.790;2023-02-23T09:52:21;13.68;;;10.50;;
68888;SDS011;55930;47.412;8.790;2023-02-23T09:55:46;14.85;;;9.52;;
68888;SDS011;55930;47.412;8.790;2023-02-23T09:59:14;15.68;;;10.45;;
68888;SDS011;55930;47.412;8.790;2023-02-23T10:02:42;12.90;;;9.40;;
68888;SDS011;55930;47.412;8.790;2023-02-23T10:06:08;10.95;;;9.23;;
68888;SDS011;55930;47.412;8.790;2023-02-23T10:13:38;14.57;;;10.32;;
68888;SDS011;55930;47.412;8.790;2023-02-23T10:24:54;12.45;;;8.40;;
68888;SDS011;55930;47.412;8.790;2023-02-23T10:28:19;9.45;;;6.70;;
68888;SDS011;55930;47.412;8.790;2023-02-23T10:31:43;11.30;;;7.10;;
68888;SDS011;55930;47.412;8.790;2023-02-23T10:35:16;11.05;;;8.00;;
68888;SDS011;55930;47.412;8.790;2023-02-23T10:38:40;14.07;;;8.23;;
68888;SDS011;55930;47.412;8.790;2023-02-23T10:42:01;12.27;;;8.35;;
68888;SDS011;55930;47.412;8.790;2023-02-23T10:45:25;11.68;;;9.05;;
68888;SDS011;55930;47.412;8.790;2023-02-23T10:48:47;10.82;;;9.35;;
68888;SDS011;55930;47.412;8.790;2023-02-23T10:52:13;12.32;;;9.13;;
68888;SDS011;55930;47.412;8.790;2023-02-23T10:55:37;12.30;;;7.40;;
68888;SDS011;55930;47.412;8.790;2023-02-23T10:58:58;10.13;;;6.60;;
68888;SDS011;55930;47.412;8.790;2023-02-23T11:02:22;8.63;;;6.22;;
68888;SDS011;55930;47.412;8.790;2023-02-23T11:05:47;11.02;;;7.25;;
68888;SDS011;55930;47.412;8.790;2023-02-23T11:12:43;10.05;;;6.68;;
68888;SDS011;55930;47.412;8.790;2023-02-23T11:19:33;9.52;;;6.78;;
68888;SDS011;55930;47.412;8.790;2023-02-23T11:22:57;13.23;;;6.75;;
68888;SDS011;55930;47.412;8.790;2023-02-23T11:26:31;9.60;;;6.28;;
68888;SDS011;55930;47.412;8.790;2023-02-23T11:29:56;11.60;;;7.05;;
68888;SDS011;55930;47.412;8.790;2023-02-23T11:33:23;9.73;;;6.53;;
68888;SDS011;55930;47.412;8.790;2023-02-23T11:36:56;10.15;;;6.25;;
68888;SDS011;55930;47.412;8.790;2023-02-23T11:40:43;11.43;;;6.93;;
68888;SDS011;55930;47.412;8.790;2023-02-23T11:44:21;10.35;;;6.60;;
68888;SDS011;55930;47.412;8.790;2023-02-23T11:47:49;10.93;;;7.28;;
68888;SDS011;55930;47.412;8.790;2023-02-23T11:54:53;10.20;;;5.82;;
68888;SDS011;55930;47.412;8.790;2023-02-23T11:58:25;9.32;;;5.65;;
68888;SDS011;55930;47.412;8.790;2023-02-23T12:01:55;12.65;;;5.72;;
68888;SDS011;55930;47.412;8.790;2023-02-23T12:05:25;11.02;;;6.55;;
68888;SDS011;55930;47.412;8.790;2023-02-23T12:08:49;13.20;;;6.97;;
68888;SDS011;55930;47.412;8.790;2023-02-23T12:12:14;11.20;;;5.97;;
68888;SDS011;55930;47.412;8.790;2023-02-23T12:19:26;11.55;;;6.75;;
68888;SDS011;55930;47.412;8.790;2023-02-23T12:22:52;12.25;;;6.57;;
68888;SDS011;55930;47.412;8.790;2023-02-23T12:26:18;10.10;;;6.10;;
68888;SDS011;55930;47.412;8.790;2023-02-23T12:33:25;11.73;;;5.95;;
68888;SDS011;55930;47.412;8.790;2023-02-23T12:36:54;10.52;;;6.93;;
68888;SDS011;55930;47.412;8.790;2023-02-23T12:51:01;12.20;;;6.25;;
68888;SDS011;55930;47.412;8.790;2023-02-23T12:54:25;11.68;;;6.30;;
68888;SDS011;55930;47.412;8.790;2023-02-23T13:01:23;10.73;;;5.25;;
68888;SDS011;55930;47.412;8.790;2023-02-23T13:08:27;12.25;;;5.45;;
68888;SDS011;55930;47.412;8.790;2023-02-23T13:15:54;11.68;;;5.53;;
68888;SDS011;55930;47.412;8.790;2023-02-23T13:19:38;11.80;;;4.72;;
68888;SDS011;55930;47.412;8.790;2023-02-23T13:30:20;11.70;;;6.43;;
68888;SDS011;55930;47.412;8.790;2023-02-23T13:33:41;11.50;;;6.10;;
68888;SDS011;55930;47.412;8.790;2023-02-23T13:37:03;10.20;;;5.90;;
68888;SDS011;55930;47.412;8.790;2023-02-23T13:40:44;12.68;;;6.32;;
68888;SDS011;55930;47.412;8.790;2023-02-23T13:44:28;10.93;;;6.95;;
68888;SDS011;55930;47.412;8.790;2023-02-23T13:51:53;8.52;;;6.43;;
68888;SDS011;55930;47.412;8.790;2023-02-23T13:58:49;9.32;;;7.80;;
68888;SDS011;55930;47.412;8.790;2023-02-23T14:02:21;11.82;;;8.77;;
68888;SDS011;55930;47.412;8.790;2023-02-23T14:05:43;11.95;;;7.63;;
68888;SDS011;55930;47.412;8.790;2023-02-23T14:09:16;11.93;;;6.78;;
68888;SDS011;55930;47.412;8.790;2023-02-23T14:12:41;10.95;;;6.57;;
68888;SDS011;55930;47.412;8.790;2023-02-23T14:16:22;9.57;;;6.53;;
68888;SDS011;55930;47.412;8.790;2023-02-23T14:24:15;11.30;;;6.50;;
68888;SDS011;55930;47.412;8.790;2023-02-23T14:27:33;8.93;;;5.72;;
68888;SDS011;55930;47.412;8.790;2023-02-23T14:38:23;10.35;;;5.60;;
68888;SDS011;55930;47.412;8.790;2023-02-23T14:41:54;9.45;;;6.13;;
68888;SDS011;55930;47.412;8.790;2023-02-23T14:45:24;13.50;;;6.37;;
68888;SDS011;55930;47.412;8.790;2023-02-23T14:48:59;12.23;;;5.65;;
68888;SDS011;55930;47.412;8.790;2023-02-23T14:52:25;11.32;;;5.30;;
68888;SDS011;55930;47.412;8.790;2023-02-23T14:55:48;9.45;;;4.93;;
68888;SDS011;55930;47.412;8.790;2023-02-23T14:59:13;8.00;;;5.07;;
68888;SDS011;55930;47.412;8.790;2023-02-23T15:02:40;9.50;;;5.03;;
68888;SDS011;55930;47.412;8.790;2023-02-23T15:06:21;9.05;;;4.82;;
68888;SDS011;55930;47.412;8.790;2023-02-23T15:09:42;10.18;;;5.05;;
68888;SDS011;55930;47.412;8.790;2023-02-23T15:13:26;11.98;;;5.45;;
68888;SDS011;55930;47.412;8.790;2023-02-23T15:16:48;13.23;;;5.85;;
68888;SDS011;55930;47.412;8.790;2023-02-23T15:20:11;13.23;;;6.32;;
68888;SDS011;55930;47.412;8.790;2023-02-23T15:23:37;9.30;;;5.43;;
68888;SDS011;55930;47.412;8.790;2023-02-23T15:26:58;10.98;;;5.22;;
68888;SDS011;55930;47.412;8.790;2023-02-23T15:33:49;10.27;;;6.18;;
68888;SDS011;55930;47.412;8.790;2023-02-23T15:37:29;14.25;;;5.97;;
68888;SDS011;55930;47.412;8.790;2023-02-23T15:40:57;12.73;;;6.53;;
68888;SDS011;55930;47.412;8.790;2023-02-23T15:44:21;10.98;;;6.15;;
68888;SDS011;55930;47.412;8.790;2023-02-23T15:47:43;11.13;;;6.05;;
68888;SDS011;55930;47.412;8.790;2023-02-23T15:51:04;10.02;;;6.45;;
68888;SDS011;55930;47.412;8.790;2023-02-23T15:54:26;9.85;;;6.60;;
68888;SDS011;55930;47.412;8.790;2023-02-23T15:57:55;14.98;;;8.85;;
68888;SDS011;55930;47.412;8.790;2023-02-23T16:11:41;12.75;;;6.35;;
68888;SDS011;55930;47.412;8.790;2023-02-23T16:18:43;14.77;;;7.10;;
68888;SDS011;55930;47.412;8.790;2023-02-23T16:22:06;15.18;;;5.82;;
68888;SDS011;55930;47.412;8.790;2023-02-23T16:25:38;16.13;;;6.20;;
68888;SDS011;55930;47.412;8.790;2023-02-23T16:29:02;11.48;;;5.20;;
68888;SDS011;55930;47.412;8.790;2023-02-23T16:32:23;12.27;;;6.72;;
68888;SDS011;55930;47.412;8.790;2023-02-23T16:35:45;10.60;;;5.35;;
68888;SDS011;55930;47.412;8.790;2023-02-23T16:39:09;11.93;;;5.30;;
68888;SDS011;55930;47.412;8.790;2023-02-23T16:42:32;11.35;;;6.15;;
68888;SDS011;55930;47.412;8.790;2023-02-23T16:45:54;13.23;;;5.78;;
68888;SDS011;55930;47.412;8.790;2023-02-23T16:49:15;10.45;;;5.43;;
68888;SDS011;55930;47.412;8.790;2023-02-23T16:52:36;13.13;;;6.60;;
68888;SDS011;55930;47.412;8.790;2023-02-23T16:55:56;12.73;;;6.57;;
68888;SDS011;55930;47.412;8.790;2023-02-23T16:59:20;14.85;;;6.45;;
68888;SDS011;55930;47.412;8.790;2023-02-23T17:02:42;11.75;;;6.60;;
68888;SDS011;55930;47.412;8.790;2023-02-23T17:06:08;10.82;;;6.00;;
68888;SDS011;55930;47.412;8.790;2023-02-23T17:09:28;11.03;;;6.17;;
68888;SDS011;55930;47.412;8.790;2023-02-23T17:12:50;13.60;;;6.10;;
68888;SDS011;55930;47.412;8.790;2023-02-23T17:16:12;10.30;;;6.88;;
68888;SDS011;55930;47.412;8.790;2023-02-23T17:19:33;14.13;;;7.13;;
68888;SDS011;55930;47.412;8.790;2023-02-23T17:22:54;13.67;;;7.03;;
68888;SDS011;55930;47.412;8.790;2023-02-23T17:26:16;16.33;;;6.72;;
68888;SDS011;55930;47.412;8.790;2023-02-23T17:29:39;16.27;;;7.28;;
68888;SDS011;55930;47.412;8.790;2023-02-23T17:33:00;14.23;;;6.43;;
68888;SDS011;55930;47.412;8.790;2023-02-23T17:36:22;13.32;;;6.90;;
68888;SDS011;55930;47.412;8.790;2023-02-23T17:39:45;15.65;;;7.72;;
68888;SDS011;55930;47.412;8.790;2023-02-23T17:43:08;17.67;;;7.30;;
68888;SDS011;55930;47.412;8.790;2023-02-23T17:46:29;15.85;;;7.22;;
68888;SDS011;55930;47.412;8.790;2023-02-23T17:49:49;14.63;;;6.87;;
68888;SDS011;55930;47.412;8.790;2023-02-23T17:53:10;13.27;;;7.70;;
68888;SDS011;55930;47.412;8.790;2023-02-23T17:56:30;18.13;;;7.10;;
68888;SDS011;55930;47.412;8.790;2023-02-23T17:59:51;13.37;;;7.30;;
68888;SDS011;55930;47.412;8.790;2023-02-23T18:03:14;14.83;;;7.93;;
68888;SDS011;55930;47.412;8.790;2023-02-23T18:06:34;15.25;;;8.13;;
68888;SDS011;55930;47.412;8.790;2023-02-23T18:09:55;14.07;;;8.17;;
68888;SDS011;55930;47.412;8.790;2023-02-23T18:13:15;15.40;;;8.70;;
68888;SDS011;55930;47.412;8.790;2023-02-23T18:16:36;15.10;;;8.73;;
68888;SDS011;55930;47.412;8.790;2023-02-23T18:19:57;14.68;;;8.13;;
68888;SDS011;55930;47.412;8.790;2023-02-23T18:23:22;13.55;;;8.93;;
68888;SDS011;55930;47.412;8.790;2023-02-23T18:26:43;13.75;;;8.82;;
68888;SDS011;55930;47.412;8.790;2023-02-23T18:30:05;19.70;;;9.68;;
68888;SDS011;55930;47.412;8.790;2023-02-23T18:33:26;20.00;;;8.88;;
68888;SDS011;55930;47.412;8.790;2023-02-23T18:36:47;21.40;;;10.13;;
68888;SDS011;55930;47.412;8.790;2023-02-23T18:40:08;15.68;;;9.73;;
68888;SDS011;55930;47.412;8.790;2023-02-23T18:43:42;15.65;;;9.43;;
68888;SDS011;55930;47.412;8.790;2023-02-23T18:47:06;19.92;;;9.77;;
68888;SDS011;55930;47.412;8.790;2023-02-23T18:50:26;17.10;;;9.67;;
68888;SDS011;55930;47.412;8.790;2023-02-23T18:53:50;21.08;;;13.48;;
68888;SDS011;55930;47.412;8.790;2023-02-23T18:57:11;18.02;;;10.88;;
68888;SDS011;55930;47.412;8.790;2023-02-23T19:00:31;15.70;;;9.43;;
68888;SDS011;55930;47.412;8.790;2023-02-23T19:03:59;15.43;;;10.27;;
68888;SDS011;55930;47.412;8.790;2023-02-23T19:07:21;18.63;;;10.48;;
68888;SDS011;55930;47.412;8.790;2023-02-23T19:10:41;18.17;;;10.53;;
68888;SDS011;55930;47.412;8.790;2023-02-23T19:14:06;14.57;;;9.10;;
68888;SDS011;55930;47.412;8.790;2023-02-23T19:17:29;18.52;;;10.15;;
68888;SDS011;55930;47.412;8.790;2023-02-23T19:20:49;15.60;;;10.10;;
68888;SDS011;55930;47.412;8.790;2023-02-23T19:24:14;14.73;;;10.52;;
68888;SDS011;55930;47.412;8.790;2023-02-23T19:27:35;15.13;;;9.50;;
68888;SDS011;55930;47.412;8.790;2023-02-23T19:31:08;18.27;;;10.27;;
68888;SDS011;55930;47.412;8.790;2023-02-23T19:34:32;21.05;;;9.93;;
68888;SDS011;55930;47.412;8.790;2023-02-23T19:37:52;21.93;;;9.83;;
68888;SDS011;55930;47.412;8.790;2023-02-23T19:41:14;16.47;;;10.23;;
68888;SDS011;55930;47.412;8.790;2023-02-23T19:44:37;17.60;;;10.18;;
68888;SDS011;55930;47.412;8.790;2023-02-23T19:47:57;17.27;;;10.17;;
68888;SDS011;55930;47.412;8.790;2023-02-23T19:51:20;18.42;;;10.82;;
68888;SDS011;55930;47.412;8.790;2023-02-23T19:54:40;16.93;;;10.53;;
68888;SDS011;55930;47.412;8.790;2023-02-23T19:58:01;15.87;;;10.60;;
68888;SDS011;55930;47.412;8.790;2023-02-23T20:01:22;15.43;;;10.17;;
68888;SDS011;55930;47.412;8.790;2023-02-23T20:04:46;16.77;;;10.35;;
68888;SDS011;55930;47.412;8.790;2023-02-23T20:08:10;17.13;;;10.23;;
68888;SDS011;55930;47.412;8.790;2023-02-23T20:11:31;15.43;;;10.82;;
68888;SDS011;55930;47.412;8.790;2023-02-23T20:18:16;22.08;;;10.25;;
68888;SDS011;55930;47.412;8.790;2023-02-23T20:21:40;19.42;;;10.65;;
68888;SDS011;55930;47.412;8.790;2023-02-23T20:25:01;19.08;;;11.15;;
68888;SDS011;55930;47.412;8.790;2023-02-23T20:28:24;19.83;;;10.70;;
68888;SDS011;55930;47.412;8.790;2023-02-23T20:31:48;18.70;;;9.80;;
68888;SDS011;55930;47.412;8.790;2023-02-23T20:35:14;16.55;;;9.20;;
68888;SDS011;55930;47.412;8.790;2023-02-23T20:38:36;16.88;;;10.52;;
68888;SDS011;55930;47.412;8.790;2023-02-23T20:45:21;19.95;;;9.38;;
68888;SDS011;55930;47.412;8.790;2023-02-23T20:48:43;15.15;;;9.18;;
68888;SDS011;55930;47.412;8.790;2023-02-23T20:52:04;14.38;;;9.38;;
68888;SDS011;55930;47.412;8.790;2023-02-23T20:55:27;17.60;;;8.95;;
68888;SDS011;55930;47.412;8.790;2023-02-23T20:58:48;13.18;;;8.63;;
68888;SDS011;55930;47.412;8.790;2023-02-23T21:02:09;16.83;;;10.00;;
68888;SDS011;55930;47.412;8.790;2023-02-23T21:05:34;15.02;;;9.80;;
68888;SDS011;55930;47.412;8.790;2023-02-23T21:08:59;14.77;;;8.73;;
68888;SDS011;55930;47.412;8.790;2023-02-23T21:12:31;14.10;;;9.38;;
68888;SDS011;55930;47.412;8.790;2023-02-23T21:15:55;12.67;;;8.23;;
68888;SDS011;55930;47.412;8.790;2023-02-23T21:19:19;16.20;;;9.00;;
68888;SDS011;55930;47.412;8.790;2023-02-23T21:22:40;18.70;;;9.63;;
68888;SDS011;55930;47.412;8.790;2023-02-23T21:26:00;15.67;;;9.60;;
68888;SDS011;55930;47.412;8.790;2023-02-23T21:29:32;19.33;;;9.45;;
68888;SDS011;55930;47.412;8.790;2023-02-23T21:32:55;22.23;;;12.10;;
68888;SDS011;55930;47.412;8.790;2023-02-23T21:36:16;21.38;;;11.75;;
68888;SDS011;55930;47.412;8.790;2023-02-23T21:39:37;20.60;;;13.13;;
68888;SDS011;55930;47.412;8.790;2023-02-23T21:42:57;17.93;;;12.17;;
68888;SDS011;55930;47.412;8.790;2023-02-23T21:46:20;16.88;;;11.07;;
68888;SDS011;55930;47.412;8.790;2023-02-23T21:49:42;17.38;;;10.23;;
68888;SDS011;55930;47.412;8.790;2023-02-23T21:53:08;20.40;;;10.18;;
68888;SDS011;55930;47.412;8.790;2023-02-23T21:56:28;17.03;;;10.83;;
68888;SDS011;55930;47.412;8.790;2023-02-23T21:59:49;18.58;;;11.77;;
68888;SDS011;55930;47.412;8.790;2023-02-23T22:03:10;22.33;;;11.37;;
68888;SDS011;55930;47.412;8.790;2023-02-23T22:06:35;15.27;;;8.80;;
68888;SDS011;55930;47.412;8.790;2023-02-23T22:09:57;20.02;;;10.38;;
68888;SDS011;55930;47.412;8.790;2023-02-23T22:13:18;16.30;;;8.67;;
68888;SDS011;55930;47.412;8.790;2023-02-23T22:16:39;16.73;;;8.73;;
68888;SDS011;55930;47.412;8.790;2023-02-23T22:20:02;17.65;;;9.35;;
68888;SDS011;55930;47.412;8.790;2023-02-23T22:23:27;14.57;;;8.80;;
68888;SDS011;55930;47.412;8.790;2023-02-23T22:26:47;15.67;;;8.90;;
68888;SDS011;55930;47.412;8.790;2023-02-23T22:30:14;15.65;;;8.52;;
68888;SDS011;55930;47.412;8.790;2023-02-23T22:33:35;15.32;;;8.50;;
68888;SDS011;55930;47.412;8.790;2023-02-23T22:36:57;18.75;;;9.20;;
68888;SDS011;55930;47.412;8.790;2023-02-23T22:40:17;14.67;;;8.90;;
68888;SDS011;55930;47.412;8.790;2023-02-23T22:43:42;14.93;;;8.47;;
68888;SDS011;55930;47.412;8.790;2023-02-23T22:47:06;17.98;;;9.63;;